sensor_id;sensor_type;location;lat;lon;timestamp;pressure;altitude;pressure_sealevel;temperature;humidity
51928;BME280;37953;52.806;18.270;2023-08-30T00:01:03;99571.13;;;17.46;100.00
51928;BME280;37953;52.806;18.270;2023-08-30T00:03:37;99565.06;;;17.44;100.00
51928;BME280;37953;52.806;18.270;2023-08-30T00:06:09;99565.91;;;17.45;100.00
51928;BME280;37953;52.806;18.270;2023-08-30T00:08:35;99561.66;;;17.42;100.00
51928;BME280;37953;52.806;18.270;2023-08-30T00:11:01;99562.59;;;17.40;100.00
51928;BME280;37953;52.806;18.270;2023-08-30T00:13:32;99554.81;;;17.38;100.00
51928;BME280;37953;52.806;18.270;2023-08-30T00:15:59;99554.81;;;17.38;100.00
51928;BME280;37953;52.806;18.270;2023-08-30T00:18:25;99551.34;;;17.38;100.00
51928;BME280;37953;52.806;18.270;2023-08-30T00:20:51;99558.41;;;17.36;100.00
51928;BME280;37953;52.806;18.270;2023-08-30T00:23:17;99567.13;;;17.36;100.00
51928;BME280;37953;52.806;18.270;2023-08-30T00:25:43;99560.16;;;17.35;100.00
51928;BME280;37953;52.806;18.270;2023-08-30T00:28:09;99562.88;;;17.34;100.00
51928;BME280;37953;52.806;18.270;2023-08-30T00:30:35;99563.78;;;17.33;100.00
51928;BME280;37953;52.806;18.270;2023-08-30T00:33:01;99560.34;;;17.30;100.00
51928;BME280;37953;52.806;18.270;2023-08-30T00:35:27;99554.25;;;17.30;100.00
51928;BME280;37953;52.806;18.270;2023-08-30T00:37:53;99562.97;;;17.30;100.00
51928;BME280;37953;52.806;18.270;2023-08-30T00:40:39;99558.53;;;17.33;100.00
51928;BME280;37953;52.806;18.270;2023-08-30T00:43:07;99560.41;;;17.29;100.00
51928;BME280;37953;52.806;18.270;2023-08-30T00:45:34;99558.66;;;17.29;100.00
51928;BME280;37953;52.806;18.270;2023-08-30T00:48:03;99557.78;;;17.29;100.00
51928;BME280;37953;52.806;18.270;2023-08-30T00:50:30;99552.53;;;17.29;100.00
51928;BME280;37953;52.806;18.270;2023-08-30T00:52:56;99553.47;;;17.28;100.00
51928;BME280;37953;52.806;18.270;2023-08-30T00:55:22;99550.88;;;17.26;100.00
51928;BME280;37953;52.806;18.270;2023-08-30T00:57:51;99555.16;;;17.29;100.00
51928;BME280;37953;52.806;18.270;2023-08-30T01:00:17;99553.47;;;17.28;100.00
51928;BME280;37953;52.806;18.270;2023-08-30T01:02:43;99553.50;;;17.26;100.00
51928;BME280;37953;52.806;18.270;2023-08-30T01:05:10;99557.97;;;17.24;100.00
51928;BME280;37953;52.806;18.270;2023-08-30T01:07:36;99552.72;;;17.24;100.00
51928;BME280;37953;52.806;18.270;2023-08-30T01:10:02;99552.72;;;17.24;100.00
51928;BME280;37953;52.806;18.270;2023-08-30T01:12:45;99549.97;;;17.27;100.00
51928;BME280;37953;52.806;18.270;2023-08-30T01:15:18;99558.81;;;17.25;100.00
51928;BME280;37953;52.806;18.270;2023-08-30T01:17:48;99555.38;;;17.23;100.00
51928;BME280;37953;52.806;18.270;2023-08-30T01:20:15;99548.41;;;17.23;100.00
51928;BME280;37953;52.806;18.270;2023-08-30T01:28:19;99558.94;;;17.22;100.00
51928;BME280;37953;52.806;18.270;2023-08-30T01:30:47;99564.19;;;17.22;100.00
51928;BME280;37953;52.806;18.270;2023-08-30T01:33:20;99565.88;;;17.23;100.00
51928;BME280;37953;52.806;18.270;2023-08-30T01:35:46;99554.63;;;17.21;100.00
51928;BME280;37953;52.806;18.270;2023-08-30T01:38:13;99556.47;;;17.19;100.00
51928;BME280;37953;52.806;18.270;2023-08-30T01:40:42;99554.63;;;17.21;100.00
51928;BME280;37953;52.806;18.270;2023-08-30T01:43:10;99559.00;;;17.20;100.00
51928;BME280;37953;52.806;18.270;2023-08-30T01:45:42;99563.34;;;17.21;100.00
51928;BME280;37953;52.806;18.270;2023-08-30T01:48:11;99560.78;;;17.20;100.00
51928;BME280;37953;52.806;18.270;2023-08-30T01:50:41;99573.84;;;17.21;100.00
51928;BME280;37953;52.806;18.270;2023-08-30T01:53:13;99578.25;;;17.21;100.00
51928;BME280;37953;52.806;18.270;2023-08-30T01:55:39;99562.41;;;17.22;100.00
51928;BME280;37953;52.806;18.270;2023-08-30T01:58:07;99552.09;;;17.18;100.00
51928;BME280;37953;52.806;18.270;2023-08-30T02:00:37;99553.88;;;17.17;100.00
51928;BME280;37953;52.806;18.270;2023-08-30T02:03:10;99565.88;;;17.23;100.00
51928;BME280;37953;52.806;18.270;2023-08-30T02:05:56;99552.75;;;17.23;100.00
51928;BME280;37953;52.806;18.270;2023-08-30T02:08:41;99553.69;;;17.22;100.00
51928;BME280;37953;52.806;18.270;2023-08-30T02:11:19;99560.78;;;17.20;100.00
51928;BME280;37953;52.806;18.270;2023-08-30T02:13:48;99543.38;;;17.17;100.00
51928;BME280;37953;52.806;18.270;2023-08-30T02:16:21;99534.53;;;17.20;100.00
51928;BME280;37953;52.806;18.270;2023-08-30T02:18:49;99525.00;;;17.17;100.00
51928;BME280;37953;52.806;18.270;2023-08-30T02:21:16;99525.81;;;17.19;100.00
51928;BME280;37953;52.806;18.270;2023-08-30T02:23:42;99515.38;;;17.18;100.00
51928;BME280;37953;52.806;18.270;2023-08-30T02:26:08;99519.72;;;17.19;100.00
51928;BME280;37953;52.806;18.270;2023-08-30T02:28:34;99506.63;;;17.17;100.00
51928;BME280;37953;52.806;18.270;2023-08-30T02:35:11;99497.72;;;17.21;100.00
51928;BME280;37953;52.806;18.270;2023-08-30T02:37:38;99497.13;;;17.15;100.00
51928;BME280;37953;52.806;18.270;2023-08-30T02:40:06;99496.19;;;17.16;100.00
51928;BME280;37953;52.806;18.270;2023-08-30T02:42:32;99505.84;;;17.15;100.00
51928;BME280;37953;52.806;18.270;2023-08-30T02:44:58;99509.31;;;17.16;100.00
51928;BME280;37953;52.806;18.270;2023-08-30T02:47:24;99503.41;;;17.11;100.00
51928;BME280;37953;52.806;18.270;2023-08-30T02:49:50;99513.78;;;17.14;100.00
51928;BME280;37953;52.806;18.270;2023-08-30T02:52:17;99517.25;;;17.14;100.00
51928;BME280;37953;52.806;18.270;2023-08-30T02:54:43;99506.81;;;17.13;100.00
51928;BME280;37953;52.806;18.270;2023-08-30T02:57:09;99497.22;;;17.12;100.00
51928;BME280;37953;52.806;18.270;2023-08-30T02:59:35;99499.91;;;17.10;100.00
51928;BME280;37953;52.806;18.270;2023-08-30T03:02:01;99499.19;;;17.06;100.00
51928;BME280;37953;52.806;18.270;2023-08-30T03:04:28;99502.72;;;17.05;100.00
51928;BME280;37953;52.806;18.270;2023-08-30T03:06:54;99497.41;;;17.07;100.00
51928;BME280;37953;52.806;18.270;2023-08-30T03:09:20;99497.41;;;17.07;100.00
51928;BME280;37953;52.806;18.270;2023-08-30T03:11:46;99495.63;;;17.07;100.00
51928;BME280;37953;52.806;18.270;2023-08-30T03:14:12;99496.56;;;17.06;100.00
51928;BME280;37953;52.806;18.270;2023-08-30T03:16:38;99496.56;;;17.06;100.00
51928;BME280;37953;52.806;18.270;2023-08-30T03:19:04;99496.56;;;17.06;100.00
51928;BME280;37953;52.806;18.270;2023-08-30T03:21:30;99495.63;;;17.07;100.00
51928;BME280;37953;52.806;18.270;2023-08-30T03:23:56;99488.69;;;17.06;100.00
51928;BME280;37953;52.806;18.270;2023-08-30T03:26:22;99496.56;;;17.06;100.00
51928;BME280;37953;52.806;18.270;2023-08-30T03:28:47;99497.47;;;17.05;100.00
51928;BME280;37953;52.806;18.270;2023-08-30T03:31:20;99496.56;;;17.06;100.00
51928;BME280;37953;52.806;18.270;2023-08-30T03:33:47;99487.09;;;17.02;100.00
51928;BME280;37953;52.806;18.270;2023-08-30T03:36:20;99500.03;;;17.07;100.00
51928;BME280;37953;52.806;18.270;2023-08-30T03:38:46;99502.84;;;17.02;100.00
51928;BME280;37953;52.806;18.270;2023-08-30T03:41:12;99507.13;;;17.05;100.00
51928;BME280;37953;52.806;18.270;2023-08-30T03:43:38;99501.88;;;17.05;100.00
51928;BME280;37953;52.806;18.270;2023-08-30T03:46:04;99494.84;;;17.05;100.00
51928;BME280;37953;52.806;18.270;2023-08-30T03:48:31;99485.34;;;17.03;100.00
51928;BME280;37953;52.806;18.270;2023-08-30T03:50:57;99490.53;;;17.04;100.00
51928;BME280;37953;52.806;18.270;2023-08-30T03:53:24;99499.25;;;17.05;100.00
51928;BME280;37953;52.806;18.270;2023-08-30T03:55:51;99488.00;;;17.01;100.00
51928;BME280;37953;52.806;18.270;2023-08-30T03:58:19;99495.72;;;17.06;100.00
51928;BME280;37953;52.806;18.270;2023-08-30T04:00:45;99499.25;;;17.05;100.00
51928;BME280;37953;52.806;18.270;2023-08-30T04:03:13;99498.41;;;17.04;100.00
51928;BME280;37953;52.806;18.270;2023-08-30T04:05:40;99497.56;;;17.04;100.00
51928;BME280;37953;52.806;18.270;2023-08-30T04:08:07;99507.16;;;17.03;100.00
51928;BME280;37953;52.806;18.270;2023-08-30T04:10:40;99498.41;;;17.04;100.00
51928;BME280;37953;52.806;18.270;2023-08-30T04:13:07;99494.06;;;17.03;100.00
51928;BME280;37953;52.806;18.270;2023-08-30T04:15:38;99490.53;;;17.04;100.00
51928;BME280;37953;52.806;18.270;2023-08-30T04:18:05;99491.44;;;17.03;100.00
51928;BME280;37953;52.806;18.270;2023-08-30T04:20:32;99489.84;;;16.99;100.00
51928;BME280;37953;52.806;18.270;2023-08-30T04:23:06;99493.19;;;17.03;100.00
51928;BME280;37953;52.806;18.270;2023-08-30T04:25:34;99486.19;;;17.03;100.00
51928;BME280;37953;52.806;18.270;2023-08-30T04:28:14;99491.44;;;17.03;100.00
51928;BME280;37953;52.806;18.270;2023-08-30T04:30:40;99498.41;;;17.04;100.00
51928;BME280;37953;52.806;18.270;2023-08-30T04:33:06;99488.00;;;17.01;100.00
51928;BME280;37953;52.806;18.270;2023-08-30T04:35:32;99487.06;;;17.04;100.00
51928;BME280;37953;52.806;18.270;2023-08-30T04:37:59;99484.50;;;17.02;100.00
51928;BME280;37953;52.806;18.270;2023-08-30T04:40:25;99490.56;;;17.03;100.00
51928;BME280;37953;52.806;18.270;2023-08-30T04:42:51;99496.69;;;17.03;100.00
51928;BME280;37953;52.806;18.270;2023-08-30T04:45:17;99499.31;;;17.03;100.00
51928;BME280;37953;52.806;18.270;2023-08-30T04:47:46;99502.84;;;17.02;100.00
51928;BME280;37953;52.806;18.270;2023-08-30T04:50:12;99508.03;;;17.04;100.00
51928;BME280;37953;52.806;18.270;2023-08-30T04:52:38;99501.06;;;17.03;100.00
51928;BME280;37953;52.806;18.270;2023-08-30T04:55:04;99495.78;;;17.04;100.00
51928;BME280;37953;52.806;18.270;2023-08-30T04:57:30;99500.19;;;17.04;100.00
51928;BME280;37953;52.806;18.270;2023-08-30T04:59:57;99503.66;;;17.04;100.00
51928;BME280;37953;52.806;18.270;2023-08-30T05:02:23;99512.38;;;17.05;100.00
51928;BME280;37953;52.806;18.270;2023-08-30T05:04:48;99506.22;;;17.06;100.00
51928;BME280;37953;52.806;18.270;2023-08-30T05:07:14;99502.72;;;17.05;100.00
51928;BME280;37953;52.806;18.270;2023-08-30T05:09:40;99508.75;;;17.07;100.00
51928;BME280;37953;52.806;18.270;2023-08-30T05:12:07;99506.09;;;17.09;100.00
51928;BME280;37953;52.806;18.270;2023-08-30T05:14:33;99507.78;;;17.10;100.00
51928;BME280;37953;52.806;18.270;2023-08-30T05:16:59;99509.56;;;17.09;100.00
51928;BME280;37953;52.806;18.270;2023-08-30T05:19:25;99512.06;;;17.13;100.00
51928;BME280;37953;52.806;18.270;2023-08-30T05:21:51;99524.25;;;17.14;100.00
51928;BME280;37953;52.806;18.270;2023-08-30T05:24:20;99523.41;;;17.13;100.00
51928;BME280;37953;52.806;18.270;2023-08-30T05:26:47;99535.63;;;17.14;100.00
51928;BME280;37953;52.806;18.270;2023-08-30T05:29:14;99545.22;;;17.15;100.00
51928;BME280;37953;52.806;18.270;2023-08-30T05:31:47;99539.03;;;17.16;100.00
51928;BME280;37953;52.806;18.270;2023-08-30T05:34:13;99539.81;;;17.18;100.00
51928;BME280;37953;52.806;18.270;2023-08-30T05:36:39;99532.84;;;17.19;100.00
51928;BME280;37953;52.806;18.270;2023-08-30T05:39:06;99527.59;;;17.19;100.00
51928;BME280;37953;52.806;18.270;2023-08-30T05:41:32;99524.03;;;17.20;100.00
51928;BME280;37953;52.806;18.270;2023-08-30T05:43:58;99521.53;;;17.17;100.00
51928;BME280;37953;52.806;18.270;2023-08-30T05:46:24;99534.53;;;17.20;100.00
51928;BME280;37953;52.806;18.270;2023-08-30T05:48:50;99547.66;;;17.20;100.00
51928;BME280;37953;52.806;18.270;2023-08-30T05:51:16;99541.50;;;17.21;100.00
51928;BME280;37953;52.806;18.270;2023-08-30T05:53:42;99539.78;;;17.20;100.00
51928;BME280;37953;52.806;18.270;2023-08-30T05:56:08;99542.41;;;17.20;100.00
51928;BME280;37953;52.806;18.270;2023-08-30T05:58:34;99546.75;;;17.21;100.00
51928;BME280;37953;52.806;18.270;2023-08-30T06:01:01;99545.03;;;17.20;100.00
51928;BME280;37953;52.806;18.270;2023-08-30T06:03:28;99552.84;;;17.21;100.00
51928;BME280;37953;52.806;18.270;2023-08-30T06:05:54;99559.88;;;17.21;100.00
51928;BME280;37953;52.806;18.270;2023-08-30T06:08:20;99553.69;;;17.22;100.00
51928;BME280;37953;52.806;18.270;2023-08-30T06:10:46;99560.63;;;17.23;100.00
51928;BME280;37953;52.806;18.270;2023-08-30T06:13:12;99546.66;;;17.22;100.00
51928;BME280;37953;52.806;18.270;2023-08-30T06:15:38;99540.53;;;17.23;100.00
51928;BME280;37953;52.806;18.270;2023-08-30T06:18:04;99542.25;;;17.23;100.00
51928;BME280;37953;52.806;18.270;2023-08-30T06:20:31;99542.22;;;17.24;100.00
51928;BME280;37953;52.806;18.270;2023-08-30T06:22:58;99540.44;;;17.25;100.00
51928;BME280;37953;52.806;18.270;2023-08-30T06:25:24;99540.38;;;17.26;100.00
51928;BME280;37953;52.806;18.270;2023-08-30T06:27:58;99535.94;;;17.28;100.00
51928;BME280;37953;52.806;18.270;2023-08-30T06:30:25;99535.97;;;17.27;100.00
51928;BME280;37953;52.806;18.270;2023-08-30T06:32:58;99530.72;;;17.27;100.00
51928;BME280;37953;52.806;18.270;2023-08-30T06:35:24;99529.88;;;17.26;100.00
51928;BME280;37953;52.806;18.270;2023-08-30T06:37:50;99528.09;;;17.27;100.00
51928;BME280;37953;52.806;18.270;2023-08-30T06:40:16;99526.34;;;17.27;100.00
51928;BME280;37953;52.806;18.270;2023-08-30T06:42:42;99525.56;;;17.25;100.00
51928;BME280;37953;52.806;18.270;2023-08-30T06:45:08;99526.34;;;17.27;100.00
51928;BME280;37953;52.806;18.270;2023-08-30T06:47:34;99526.34;;;17.27;100.00
51928;BME280;37953;52.806;18.270;2023-08-30T06:50:01;99529.78;;;17.29;100.00
51928;BME280;37953;52.806;18.270;2023-08-30T06:52:27;99528.91;;;17.29;100.00
51928;BME280;37953;52.806;18.270;2023-08-30T06:54:53;99526.28;;;17.29;100.00
51928;BME280;37953;52.806;18.270;2023-08-30T06:57:18;99539.28;;;17.32;100.00
51928;BME280;37953;52.806;18.270;2023-08-30T06:59:45;99545.41;;;17.33;100.00
51928;BME280;37953;52.806;18.270;2023-08-30T07:02:11;99555.03;;;17.32;100.00
51928;BME280;37953;52.806;18.270;2023-08-30T07:04:37;99554.19;;;17.32;100.00
51928;BME280;37953;52.806;18.270;2023-08-30T07:07:03;99550.69;;;17.31;100.00
51928;BME280;37953;52.806;18.270;2023-08-30T07:09:30;99548.06;;;17.31;100.00
51928;BME280;37953;52.806;18.270;2023-08-30T07:11:58;99553.31;;;17.31;100.00
51928;BME280;37953;52.806;18.270;2023-08-30T07:14:30;99549.81;;;17.32;100.00
51928;BME280;37953;52.806;18.270;2023-08-30T07:16:56;99548.94;;;17.32;100.00
51928;BME280;37953;52.806;18.270;2023-08-30T07:19:22;99542.97;;;17.28;100.00
51928;BME280;37953;52.806;18.270;2023-08-30T07:21:48;99549.81;;;17.32;100.00
51928;BME280;37953;52.806;18.270;2023-08-30T07:24:14;99551.50;;;17.33;100.00
51928;BME280;37953;52.806;18.270;2023-08-30T07:26:40;99553.16;;;17.36;100.00
51928;BME280;37953;52.806;18.270;2023-08-30T07:29:06;99549.66;;;17.35;100.00
51928;BME280;37953;52.806;18.270;2023-08-30T07:31:32;99544.41;;;17.35;100.00
51928;BME280;37953;52.806;18.270;2023-08-30T07:33:59;99549.66;;;17.35;100.00
51928;BME280;37953;52.806;18.270;2023-08-30T07:36:26;99554.00;;;17.36;100.00
51928;BME280;37953;52.806;18.270;2023-08-30T07:38:52;99559.22;;;17.38;100.00
51928;BME280;37953;52.806;18.270;2023-08-30T07:41:18;99560.91;;;17.39;100.00
51928;BME280;37953;52.806;18.270;2023-08-30T07:43:44;99559.13;;;17.39;100.00
51928;BME280;37953;52.806;18.270;2023-08-30T07:46:10;99562.59;;;17.40;100.00
51928;BME280;37953;52.806;18.270;2023-08-30T07:48:37;99557.28;;;17.41;100.00
51928;BME280;37953;52.806;18.270;2023-08-30T07:51:03;99565.97;;;17.43;100.00
51928;BME280;37953;52.806;18.270;2023-08-30T07:53:29;99562.50;;;17.43;100.00
51928;BME280;37953;52.806;18.270;2023-08-30T07:55:55;99573.78;;;17.45;100.00
51928;BME280;37953;52.806;18.270;2023-08-30T07:58:21;99567.69;;;17.44;100.00
51928;BME280;37953;52.806;18.270;2023-08-30T08:00:50;99572.94;;;17.44;100.00
51928;BME280;37953;52.806;18.270;2023-08-30T08:03:17;99575.44;;;17.47;100.00
51928;BME280;37953;52.806;18.270;2023-08-30T08:05:43;99568.50;;;17.46;100.00
51928;BME280;37953;52.806;18.270;2023-08-30T08:08:09;99579.84;;;17.47;100.00
51928;BME280;37953;52.806;18.270;2023-08-30T08:10:36;99578.06;;;17.47;100.00
51928;BME280;37953;52.806;18.270;2023-08-30T08:13:03;99584.25;;;17.46;100.00
51928;BME280;37953;52.806;18.270;2023-08-30T08:15:31;99584.25;;;17.46;100.00
51928;BME280;37953;52.806;18.270;2023-08-30T08:17:58;99580.69;;;17.47;100.00
51928;BME280;37953;52.806;18.270;2023-08-30T08:20:24;99582.41;;;17.48;100.00
51928;BME280;37953;52.806;18.270;2023-08-30T08:22:50;99595.47;;;17.50;100.00
51928;BME280;37953;52.806;18.270;2023-08-30T08:25:16;99589.34;;;17.49;100.00
51928;BME280;37953;52.806;18.270;2023-08-30T08:27:42;99590.19;;;17.50;100.00
51928;BME280;37953;52.806;18.270;2023-08-30T08:30:09;99599.81;;;17.51;100.00
51928;BME280;37953;52.806;18.270;2023-08-30T08:32:36;99596.34;;;17.50;100.00
51928;BME280;37953;52.806;18.270;2023-08-30T08:35:01;99596.34;;;17.50;100.00
51928;BME280;37953;52.806;18.270;2023-08-30T08:37:34;99598.03;;;17.52;100.00
51928;BME280;37953;52.806;18.270;2023-08-30T08:40:00;99598.88;;;17.52;100.00
51928;BME280;37953;52.806;18.270;2023-08-30T08:42:41;99599.66;;;17.54;100.00
51928;BME280;37953;52.806;18.270;2023-08-30T08:45:09;99596.19;;;17.54;100.00
51928;BME280;37953;52.806;18.270;2023-08-30T08:47:36;99589.16;;;17.54;100.00
51928;BME280;37953;52.806;18.270;2023-08-30T08:50:03;99591.78;;;17.54;100.00
51928;BME280;37953;52.806;18.270;2023-08-30T08:52:30;99594.38;;;17.56;100.00
51928;BME280;37953;52.806;18.270;2023-08-30T08:54:57;99591.75;;;17.56;100.00
51928;BME280;37953;52.806;18.270;2023-08-30T08:57:26;99597.84;;;17.56;100.00
51928;BME280;37953;52.806;18.270;2023-08-30T08:59:58;99593.38;;;17.58;100.00
51928;BME280;37953;52.806;18.270;2023-08-30T09:02:24;99592.47;;;17.59;100.00
51928;BME280;37953;52.806;18.270;2023-08-30T09:04:52;99594.13;;;17.62;100.00
51928;BME280;37953;52.806;18.270;2023-08-30T09:07:18;99595.75;;;17.64;100.00
51928;BME280;37953;52.806;18.270;2023-08-30T09:09:46;99585.44;;;17.60;100.00
51928;BME280;37953;52.806;18.270;2023-08-30T09:12:18;99590.47;;;17.66;100.00
51928;BME280;37953;52.806;18.270;2023-08-30T09:14:58;99584.22;;;17.68;100.00
51928;BME280;37953;52.806;18.270;2023-08-30T09:17:44;99592.03;;;17.70;100.00
51928;BME280;37953;52.806;18.270;2023-08-30T09:20:13;99590.41;;;17.67;100.00
51928;BME280;37953;52.806;18.270;2023-08-30T09:22:39;99588.63;;;17.68;100.00
51928;BME280;37953;52.806;18.270;2023-08-30T09:25:08;99592.00;;;17.72;100.00
51928;BME280;37953;52.806;18.270;2023-08-30T09:27:40;99589.22;;;17.75;100.00
51928;BME280;37953;52.806;18.270;2023-08-30T09:30:07;99588.28;;;17.76;100.00
51928;BME280;37953;52.806;18.270;2023-08-30T09:32:41;99586.41;;;17.79;100.00
51928;BME280;37953;52.806;18.270;2023-08-30T09:35:10;99586.25;;;17.84;100.00
51928;BME280;37953;52.806;18.270;2023-08-30T09:37:37;99591.50;;;17.84;100.00
51928;BME280;37953;52.806;18.270;2023-08-30T09:40:03;99580.09;;;17.85;100.00
51928;BME280;37953;52.806;18.270;2023-08-30T09:42:29;99592.19;;;17.89;100.00
51928;BME280;37953;52.806;18.270;2023-08-30T09:45:04;99581.59;;;17.90;100.00
51928;BME280;37953;52.806;18.270;2023-08-30T09:47:30;99592.88;;;17.93;100.00
51928;BME280;37953;52.806;18.270;2023-08-30T09:52:32;99585.75;;;17.96;100.00
51928;BME280;37953;52.806;18.270;2023-08-30T09:55:07;99587.53;;;17.96;100.00
51928;BME280;37953;52.806;18.270;2023-08-30T09:57:33;99576.94;;;17.97;100.00
51928;BME280;37953;52.806;18.270;2023-08-30T10:00:00;99578.66;;;17.98;100.00
51928;BME280;37953;52.806;18.270;2023-08-30T10:02:31;99572.53;;;17.98;100.00
51928;BME280;37953;52.806;18.270;2023-08-30T10:04:58;99572.50;;;17.99;100.00
51928;BME280;37953;52.806;18.270;2023-08-30T10:07:24;99579.44;;;18.00;100.00
51928;BME280;37953;52.806;18.270;2023-08-30T10:09:51;99581.16;;;18.01;100.00
51928;BME280;37953;52.806;18.270;2023-08-30T10:12:21;99588.97;;;18.03;100.00
51928;BME280;37953;52.806;18.270;2023-08-30T10:14:49;99588.91;;;18.04;100.00
51928;BME280;37953;52.806;18.270;2023-08-30T10:17:18;99592.38;;;18.05;100.00
51928;BME280;37953;52.806;18.270;2023-08-30T10:19:45;99589.38;;;18.14;100.00
51928;BME280;37953;52.806;18.270;2023-08-30T10:22:18;99583.50;;;18.07;100.00
51928;BME280;37953;52.806;18.270;2023-08-30T10:24:48;99584.44;;;18.06;100.00
51928;BME280;37953;52.806;18.270;2023-08-30T10:27:20;99584.44;;;18.06;100.00
51928;BME280;37953;52.806;18.270;2023-08-30T10:29:48;99578.34;;;18.06;100.00
51928;BME280;37953;52.806;18.270;2023-08-30T10:32:21;99582.59;;;18.08;100.00
51928;BME280;37953;52.806;18.270;2023-08-30T10:34:49;99583.38;;;18.10;100.00
51928;BME280;37953;52.806;18.270;2023-08-30T10:37:15;99581.50;;;18.14;100.00
51928;BME280;37953;52.806;18.270;2023-08-30T10:39:42;99574.41;;;18.16;100.00
51928;BME280;37953;52.806;18.270;2023-08-30T10:42:09;99574.25;;;18.19;100.00
51928;BME280;37953;52.806;18.270;2023-08-30T10:45:02;99577.63;;;18.23;100.00
51928;BME280;37953;52.806;18.270;2023-08-30T10:47:31;99579.31;;;18.24;100.00
51928;BME280;37953;52.806;18.270;2023-08-30T10:50:05;99573.00;;;18.28;100.00
51928;BME280;37953;52.806;18.270;2023-08-30T10:52:31;99572.94;;;18.29;100.00
51928;BME280;37953;52.806;18.270;2023-08-30T10:55:14;99567.69;;;18.29;100.00
51928;BME280;37953;52.806;18.270;2023-08-30T10:57:44;99565.78;;;18.33;100.00
51928;BME280;37953;52.806;18.270;2023-08-30T11:02:51;99577.00;;;18.37;100.00
51928;BME280;37953;52.806;18.270;2023-08-30T11:05:24;99576.16;;;18.36;100.00
51928;BME280;37953;52.806;18.270;2023-08-30T11:07:54;99564.72;;;18.37;100.00
51928;BME280;37953;52.806;18.270;2023-08-30T11:10:21;99570.09;;;18.34;100.00
51928;BME280;37953;52.806;18.270;2023-08-30T11:13:01;99566.47;;;18.37;100.00
51928;BME280;37953;52.806;18.270;2023-08-30T11:15:27;99567.28;;;18.39;100.00
51928;BME280;37953;52.806;18.270;2023-08-30T11:18:02;99572.41;;;18.42;100.00
51928;BME280;37953;52.806;18.270;2023-08-30T11:20:28;99568.06;;;18.41;100.00
51928;BME280;37953;52.806;18.270;2023-08-30T11:22:55;99572.47;;;18.40;100.00
51928;BME280;37953;52.806;18.270;2023-08-30T11:25:21;99564.59;;;18.40;100.00
51928;BME280;37953;52.806;18.270;2023-08-30T11:27:47;99560.22;;;18.39;100.00
51928;BME280;37953;52.806;18.270;2023-08-30T11:30:14;99560.16;;;18.41;100.00
51928;BME280;37953;52.806;18.270;2023-08-30T11:32:41;99562.78;;;18.41;100.00
51928;BME280;37953;52.806;18.270;2023-08-30T11:35:10;99560.91;;;18.44;100.00
51928;BME280;37953;52.806;18.270;2023-08-30T11:37:36;99564.25;;;18.48;100.00
51928;BME280;37953;52.806;18.270;2023-08-30T11:40:03;99569.38;;;18.51;100.00
51928;BME280;37953;52.806;18.270;2023-08-30T11:42:36;99574.63;;;18.51;100.00
51928;BME280;37953;52.806;18.270;2023-08-30T11:45:02;99567.66;;;18.50;100.00
51928;BME280;37953;52.806;18.270;2023-08-30T11:47:29;99571.94;;;18.52;100.00
51928;BME280;37953;52.806;18.270;2023-08-30T11:49:57;99559.00;;;18.48;100.00
51928;BME280;37953;52.806;18.270;2023-08-30T11:52:24;99563.25;;;18.50;100.00
51928;BME280;37953;52.806;18.270;2023-08-30T11:54:57;99564.09;;;18.51;100.00
51928;BME280;37953;52.806;18.270;2023-08-30T11:57:23;99565.81;;;18.52;100.00
51928;BME280;37953;52.806;18.270;2023-08-30T11:59:49;99563.19;;;18.52;100.00
51928;BME280;37953;52.806;18.270;2023-08-30T12:02:16;99571.09;;;18.52;100.00
51928;BME280;37953;52.806;18.270;2023-08-30T12:04:49;99577.09;;;18.54;100.00
51928;BME280;37953;52.806;18.270;2023-08-30T12:07:26;99577.97;;;18.55;100.00
51928;BME280;37953;52.806;18.270;2023-08-30T12:10:12;99580.53;;;18.56;100.00
51928;BME280;37953;52.806;18.270;2023-08-30T12:12:44;99584.16;;;18.54;100.00
51928;BME280;37953;52.806;18.270;2023-08-30T12:15:12;99590.25;;;18.54;100.00
51928;BME280;37953;52.806;18.270;2023-08-30T12:17:38;99583.31;;;18.53;100.00
51928;BME280;37953;52.806;18.270;2023-08-30T12:20:04;99574.69;;;18.49;100.00
51928;BME280;37953;52.806;18.270;2023-08-30T12:22:39;99582.38;;;18.54;100.00
51928;BME280;37953;52.806;18.270;2023-08-30T12:25:23;99576.19;;;18.55;100.00
51928;BME280;37953;52.806;18.270;2023-08-30T12:27:50;99572.84;;;18.51;100.00
51928;BME280;37953;52.806;18.270;2023-08-30T12:30:16;99569.38;;;18.51;100.00
51928;BME280;37953;52.806;18.270;2023-08-30T12:32:46;99574.63;;;18.51;100.00
51928;BME280;37953;52.806;18.270;2023-08-30T12:35:12;99573.78;;;18.50;100.00
51928;BME280;37953;52.806;18.270;2023-08-30T12:37:38;99574.63;;;18.51;100.00
51928;BME280;37953;52.806;18.270;2023-08-30T12:40:05;99574.00;;;18.46;100.00
51928;BME280;37953;52.806;18.270;2023-08-30T12:42:32;99575.63;;;18.48;100.00
51928;BME280;37953;52.806;18.270;2023-08-30T12:44:59;99580.09;;;18.46;100.00
51928;BME280;37953;52.806;18.270;2023-08-30T12:47:25;99578.47;;;18.44;100.00
51928;BME280;37953;52.806;18.270;2023-08-30T12:49:50;99574.25;;;18.40;100.00
51928;BME280;37953;52.806;18.270;2023-08-30T12:52:16;99566.28;;;18.41;100.00
51928;BME280;37953;52.806;18.270;2023-08-30T12:54:43;99572.47;;;18.40;100.00
51928;BME280;37953;52.806;18.270;2023-08-30T12:57:09;99569.06;;;18.38;100.00
51928;BME280;37953;52.806;18.270;2023-08-30T12:59:35;99565.44;;;18.41;100.00